sensor_id;sensor_type;location;lat;lon;timestamp;pressure;altitude;pressure_sealevel;temperature;humidity
3206;BME280;1615;53.602;11.418;2023-02-11T00:00:32;102339.88;;;7.97;100.00
3206;BME280;1615;53.602;11.418;2023-02-11T00:02:57;102371.19;;;7.83;100.00
3206;BME280;1615;53.602;11.418;2023-02-11T00:05:22;102339.75;;;7.92;100.00
3206;BME280;1615;53.602;11.418;2023-02-11T00:07:48;102338.44;;;7.94;100.00
3206;BME280;1615;53.602;11.418;2023-02-11T00:10:13;102314.47;;;7.85;100.00
3206;BME280;1615;53.602;11.418;2023-02-11T00:12:38;102297.75;;;7.70;100.00
3206;BME280;1615;53.602;11.418;2023-02-11T00:15:06;102315.31;;;7.97;100.00
3206;BME280;1615;53.602;11.418;2023-02-11T00:17:31;102312.34;;;7.87;100.00
3206;BME280;1615;53.602;11.418;2023-02-11T00:19:57;102309.47;;;7.82;100.00
3206;BME280;1615;53.602;11.418;2023-02-11T00:22:22;102308.28;;;7.78;100.00
3206;BME280;1615;53.602;11.418;2023-02-11T00:24:48;102317.34;;;7.90;100.00
3206;BME280;1615;53.602;11.418;2023-02-11T00:27:13;102319.44;;;7.88;100.00
3206;BME280;1615;53.602;11.418;2023-02-11T00:29:38;102210.63;;;7.34;100.00
3206;BME280;1615;53.602;11.418;2023-02-11T00:32:04;102245.75;;;7.42;100.00
3206;BME280;1615;53.602;11.418;2023-02-11T00:34:31;102300.34;;;7.88;100.00
3206;BME280;1615;53.602;11.418;2023-02-11T00:36:57;102304.25;;;7.92;100.00
3206;BME280;1615;53.602;11.418;2023-02-11T00:39:22;102313.41;;;7.86;100.00
3206;BME280;1615;53.602;11.418;2023-02-11T00:41:47;102314.47;;;7.85;100.00
3206;BME280;1615;53.602;11.418;2023-02-11T00:44:13;102298.91;;;7.85;100.00
3206;BME280;1615;53.602;11.418;2023-02-11T00:46:38;102293.72;;;7.84;100.00
3206;BME280;1615;53.602;11.418;2023-02-11T00:49:03;102299.75;;;7.86;100.00
3206;BME280;1615;53.602;11.418;2023-02-11T00:51:28;102291.91;;;7.89;100.00
3206;BME280;1615;53.602;11.418;2023-02-11T00:53:54;102247.91;;;7.63;100.00
3206;BME280;1615;53.602;11.418;2023-02-11T00:56:22;102279.56;;;7.87;100.00
3206;BME280;1615;53.602;11.418;2023-02-11T00:58:48;102279.44;;;7.82;100.00
3206;BME280;1615;53.602;11.418;2023-02-11T01:01:13;102276.03;;;7.75;100.00
3206;BME280;1615;53.602;11.418;2023-02-11T01:03:39;102281.38;;;7.81;100.00
3206;BME280;1615;53.602;11.418;2023-02-11T01:06:06;102287.19;;;7.85;100.00
3206;BME280;1615;53.602;11.418;2023-02-11T01:08:35;102207.44;;;7.37;100.00
3206;BME280;1615;53.602;11.418;2023-02-11T01:11:04;102269.47;;;7.64;100.00
3206;BME280;1615;53.602;11.418;2023-02-11T01:13:31;102286.34;;;7.84;100.00
3206;BME280;1615;53.602;11.418;2023-02-11T01:15:56;102280.88;;;7.84;100.00
3206;BME280;1615;53.602;11.418;2023-02-11T01:18:22;102268.66;;;7.87;100.00
3206;BME280;1615;53.602;11.418;2023-02-11T01:20:47;102212.53;;;7.45;100.00
3206;BME280;1615;53.602;11.418;2023-02-11T01:23:13;102256.53;;;7.83;100.00
3206;BME280;1615;53.602;11.418;2023-02-11T01:25:38;102270.44;;;7.81;100.00
3206;BME280;1615;53.602;11.418;2023-02-11T01:28:04;102263.06;;;7.82;100.00
3206;BME280;1615;53.602;11.418;2023-02-11T01:30:29;102275.19;;;7.86;100.00
3206;BME280;1615;53.602;11.418;2023-02-11T01:32:55;102273.03;;;7.88;100.00
3206;BME280;1615;53.602;11.418;2023-02-11T01:35:20;102273.66;;;7.90;100.00
3206;BME280;1615;53.602;11.418;2023-02-11T01:37:46;102271.50;;;7.92;100.00
3206;BME280;1615;53.602;11.418;2023-02-11T01:40:14;102262.72;;;7.90;100.00
3206;BME280;1615;53.602;11.418;2023-02-11T01:42:40;102269.84;;;7.91;100.00
3206;BME280;1615;53.602;11.418;2023-02-11T01:48:10;102217.16;;;7.56;100.00
3206;BME280;1615;53.602;11.418;2023-02-11T01:50:38;102270.53;;;7.98;100.00
3206;BME280;1615;53.602;11.418;2023-02-11T01:53:05;102264.59;;;8.01;100.00
3206;BME280;1615;53.602;11.418;2023-02-11T01:55:51;102268.75;;;8.03;100.00
3206;BME280;1615;53.602;11.418;2023-02-11T01:58:37;102253.56;;;7.96;100.00
3206;BME280;1615;53.602;11.418;2023-02-11T02:01:05;102269.72;;;7.97;100.00
3206;BME280;1615;53.602;11.418;2023-02-11T02:03:34;102256.88;;;7.98;100.00
3206;BME280;1615;53.602;11.418;2023-02-11T02:06:08;102264.00;;;7.99;100.00
3206;BME280;1615;53.602;11.418;2023-02-11T02:08:41;102258.41;;;7.94;100.00
3206;BME280;1615;53.602;11.418;2023-02-11T02:11:08;102250.84;;;7.96;100.00
3206;BME280;1615;53.602;11.418;2023-02-11T02:13:34;102249.75;;;8.08;100.00
3206;BME280;1615;53.602;11.418;2023-02-11T02:16:01;102246.28;;;8.13;100.00
3206;BME280;1615;53.602;11.418;2023-02-11T02:18:46;102247.97;;;8.02;100.00
3206;BME280;1615;53.602;11.418;2023-02-11T02:40:15;102235.72;;;8.16;100.00
3206;BME280;1615;53.602;11.418;2023-02-11T02:42:42;102245.31;;;8.19;100.00
3206;BME280;1615;53.602;11.418;2023-02-11T02:45:10;102148.59;;;7.64;100.00
3206;BME280;1615;53.602;11.418;2023-02-11T02:47:36;102253.19;;;8.27;100.00
3206;BME280;1615;53.602;11.418;2023-02-11T02:50:02;102244.50;;;8.30;100.00
3206;BME280;1615;53.602;11.418;2023-02-11T03:03:07;102222.72;;;8.35;100.00
3206;BME280;1615;53.602;11.418;2023-02-11T03:08:26;102212.47;;;8.42;100.00
3206;BME280;1615;53.602;11.418;2023-02-11T03:10:55;102223.91;;;8.39;100.00
3206;BME280;1615;53.602;11.418;2023-02-11T03:13:25;102240.53;;;8.37;100.00
3206;BME280;1615;53.602;11.418;2023-02-11T03:15:54;102237.47;;;8.34;100.00
3206;BME280;1615;53.602;11.418;2023-02-11T03:18:24;102238.28;;;8.34;100.00
3206;BME280;1615;53.602;11.418;2023-02-11T03:20:53;102234.84;;;8.39;100.00
3206;BME280;1615;53.602;11.418;2023-02-11T03:23:41;102234.84;;;8.39;100.00
3206;BME280;1615;53.602;11.418;2023-02-11T03:31:35;102224.38;;;8.36;100.00
3206;BME280;1615;53.602;11.418;2023-02-11T03:34:08;102215.38;;;8.35;100.00
3206;BME280;1615;53.602;11.418;2023-02-11T03:39:14;102208.34;;;8.39;100.00
3206;BME280;1615;53.602;11.418;2023-02-11T03:41:41;102195.59;;;8.45;100.00
3206;BME280;1615;53.602;11.418;2023-02-11T03:44:09;102149.38;;;8.27;100.00
3206;BME280;1615;53.602;11.418;2023-02-11T03:46:39;102168.94;;;8.35;100.00
3206;BME280;1615;53.602;11.418;2023-02-11T03:49:10;102163.19;;;8.37;100.00
3206;BME280;1615;53.602;11.418;2023-02-11T03:51:37;102170.34;;;8.38;100.00
3206;BME280;1615;53.602;11.418;2023-02-11T03:54:07;102173.88;;;8.38;100.00
3206;BME280;1615;53.602;11.418;2023-02-11T03:56:39;102170.44;;;8.43;100.00
3206;BME280;1615;53.602;11.418;2023-02-11T03:59:06;102173.66;;;8.40;100.00
3206;BME280;1615;53.602;11.418;2023-02-11T04:01:32;102168.75;;;8.42;100.00
3206;BME280;1615;53.602;11.418;2023-02-11T04:03:57;102176.56;;;8.50;100.00
3206;BME280;1615;53.602;11.418;2023-02-11T04:06:22;102165.13;;;8.53;100.00
3206;BME280;1615;53.602;11.418;2023-02-11T04:08:48;102154.84;;;8.43;100.00
3206;BME280;1615;53.602;11.418;2023-02-11T04:11:13;102171.44;;;8.53;100.00
3206;BME280;1615;53.602;11.418;2023-02-11T04:13:38;102165.50;;;8.56;100.00
3206;BME280;1615;53.602;11.418;2023-02-11T04:16:04;102177.84;;;8.59;100.00
3206;BME280;1615;53.602;11.418;2023-02-11T04:18:29;102183.31;;;8.59;100.00
3206;BME280;1615;53.602;11.418;2023-02-11T04:20:54;102160.84;;;8.57;100.00
3206;BME280;1615;53.602;11.418;2023-02-11T04:23:20;102164.66;;;8.56;100.00
3206;BME280;1615;53.602;11.418;2023-02-11T04:25:45;102163.00;;;8.55;100.00
3206;BME280;1615;53.602;11.418;2023-02-11T04:28:10;102176.16;;;8.58;100.00
3206;BME280;1615;53.602;11.418;2023-02-11T04:30:36;102147.00;;;8.47;100.00
3206;BME280;1615;53.602;11.418;2023-02-11T04:33:01;102172.09;;;8.60;100.00
3206;BME280;1615;53.602;11.418;2023-02-11T04:35:26;102180.75;;;8.69;100.00
3206;BME280;1615;53.602;11.418;2023-02-11T04:37:52;102179.09;;;8.68;100.00
3206;BME280;1615;53.602;11.418;2023-02-11T04:40:17;102188.88;;;8.64;100.00
3206;BME280;1615;53.602;11.418;2023-02-11T04:42:42;102187.88;;;8.70;100.00
3206;BME280;1615;53.602;11.418;2023-02-11T04:45:08;102189.03;;;8.74;100.00
3206;BME280;1615;53.602;11.418;2023-02-11T04:47:33;102189.72;;;8.81;100.00
3206;BME280;1615;53.602;11.418;2023-02-11T04:49:58;102192.94;;;8.78;100.00
3206;BME280;1615;53.602;11.418;2023-02-11T04:52:24;102188.66;;;8.82;100.00
3206;BME280;1615;53.602;11.418;2023-02-11T04:54:49;102185.41;;;8.85;100.00
3206;BME280;1615;53.602;11.418;2023-02-11T04:57:15;102181.09;;;8.89;100.00
3206;BME280;1615;53.602;11.418;2023-02-11T04:59:40;102194.09;;;8.82;100.00
3206;BME280;1615;53.602;11.418;2023-02-11T05:02:05;102177.19;;;8.85;100.00
3206;BME280;1615;53.602;11.418;2023-02-11T05:04:31;102168.50;;;8.88;100.00
3206;BME280;1615;53.602;11.418;2023-02-11T05:06:56;102152.94;;;8.88;100.00
3206;BME280;1615;53.602;11.418;2023-02-11T05:09:21;102157.91;;;8.91;100.00
3206;BME280;1615;53.602;11.418;2023-02-11T05:11:47;102154.91;;;8.93;100.00
3206;BME280;1615;53.602;11.418;2023-02-11T05:14:12;102143.41;;;8.91;100.00
3206;BME280;1615;53.602;11.418;2023-02-11T05:16:37;102140.69;;;8.91;100.00
3206;BME280;1615;53.602;11.418;2023-02-11T05:19:03;102130.69;;;8.85;100.00
3206;BME280;1615;53.602;11.418;2023-02-11T05:21:28;102121.53;;;8.91;100.00
3206;BME280;1615;53.602;11.418;2023-02-11T05:23:54;102118.53;;;8.92;100.00
3206;BME280;1615;53.602;11.418;2023-02-11T05:26:19;102123.66;;;8.89;100.00
3206;BME280;1615;53.602;11.418;2023-02-11T05:28:44;102124.25;;;8.91;100.00
3206;BME280;1615;53.602;11.418;2023-02-11T05:31:10;102126.72;;;8.92;100.00
3206;BME280;1615;53.602;11.418;2023-02-11T05:33:38;102116.63;;;8.93;100.00
3206;BME280;1615;53.602;11.418;2023-02-11T05:36:06;102119.59;;;8.91;100.00
3206;BME280;1615;53.602;11.418;2023-02-11T05:38:33;102115.47;;;8.89;100.00
3206;BME280;1615;53.602;11.418;2023-02-11T05:40:58;102114.47;;;8.95;100.00
3206;BME280;1615;53.602;11.418;2023-02-11T05:43:23;102114.81;;;8.82;100.00
3206;BME280;1615;53.602;11.418;2023-02-11T05:45:49;102119.44;;;8.98;100.00
3206;BME280;1615;53.602;11.418;2023-02-11T05:48:14;102112.81;;;8.94;100.00
3206;BME280;1615;53.602;11.418;2023-02-11T05:50:39;102117.78;;;8.97;100.00
3206;BME280;1615;53.602;11.418;2023-02-11T05:53:05;102114.72;;;8.93;100.00
3206;BME280;1615;53.602;11.418;2023-02-11T05:55:31;102083.00;;;8.76;100.00
3206;BME280;1615;53.602;11.418;2023-02-11T05:57:56;102113.31;;;8.91;100.00
3206;BME280;1615;53.602;11.418;2023-02-11T06:00:22;102106.00;;;8.96;100.00
3206;BME280;1615;53.602;11.418;2023-02-11T06:02:47;102085.91;;;8.86;100.00
3206;BME280;1615;53.602;11.418;2023-02-11T06:05:12;102096.91;;;8.91;100.00
3206;BME280;1615;53.602;11.418;2023-02-11T06:07:38;102082.66;;;8.89;100.00
3206;BME280;1615;53.602;11.418;2023-02-11T06:10:03;101951.78;;;8.10;100.00
3206;BME280;1615;53.602;11.418;2023-02-11T06:12:29;102090.44;;;8.97;100.00
3206;BME280;1615;53.602;11.418;2023-02-11T06:14:54;102095.91;;;8.97;100.00
3206;BME280;1615;53.602;11.418;2023-02-11T06:17:19;102112.00;;;8.93;100.00
3206;BME280;1615;53.602;11.418;2023-02-11T06:19:45;102110.69;;;8.96;100.00
3206;BME280;1615;53.602;11.418;2023-02-11T06:22:10;102105.13;;;8.91;100.00
3206;BME280;1615;53.602;11.418;2023-02-11T06:24:36;102118.28;;;8.94;100.00
3206;BME280;1615;53.602;11.418;2023-02-11T06:27:03;102101.63;;;8.95;100.00
3206;BME280;1615;53.602;11.418;2023-02-11T06:29:28;102112.31;;;8.97;100.00
3206;BME280;1615;53.602;11.418;2023-02-11T06:31:54;102109.06;;;9.00;100.00
3206;BME280;1615;53.602;11.418;2023-02-11T06:34:19;102101.72;;;9.00;100.00
3206;BME280;1615;53.602;11.418;2023-02-11T06:36:44;102099.22;;;8.99;100.00
3206;BME280;1615;53.602;11.418;2023-02-11T06:39:11;102098.66;;;8.97;100.00
3206;BME280;1615;53.602;11.418;2023-02-11T06:41:36;102086.94;;;9.01;100.00
3206;BME280;1615;53.602;11.418;2023-02-11T06:44:02;102076.84;;;9.02;100.00
3206;BME280;1615;53.602;11.418;2023-02-11T06:46:28;102079.22;;;8.98;100.00
3206;BME280;1615;53.602;11.418;2023-02-11T06:48:53;102089.59;;;8.96;100.00
3206;BME280;1615;53.602;11.418;2023-02-11T06:51:18;102088.28;;;8.99;100.00
3206;BME280;1615;53.602;11.418;2023-02-11T06:53:45;101975.34;;;8.27;100.00
3206;BME280;1615;53.602;11.418;2023-02-11T06:56:18;102100.47;;;9.08;100.00
3206;BME280;1615;53.602;11.418;2023-02-11T06:58:44;102098.88;;;9.12;100.00
3206;BME280;1615;53.602;11.418;2023-02-11T07:01:12;102112.03;;;9.15;100.00
3206;BME280;1615;53.602;11.418;2023-02-11T07:03:40;102125.25;;;9.18;100.00
3206;BME280;1615;53.602;11.418;2023-02-11T07:06:09;102070.53;;;8.85;100.00
3206;BME280;1615;53.602;11.418;2023-02-11T07:08:36;102148.66;;;9.30;100.00
3206;BME280;1615;53.602;11.418;2023-02-11T07:11:13;102136.97;;;9.35;100.00
3206;BME280;1615;53.602;11.418;2023-02-11T07:13:38;102141.44;;;9.41;100.00
3206;BME280;1615;53.602;11.418;2023-02-11T07:16:08;102163.91;;;9.43;100.00
3206;BME280;1615;53.602;11.418;2023-02-11T07:18:34;102165.31;;;9.45;100.00
3206;BME280;1615;53.602;11.418;2023-02-11T07:21:06;102153.63;;;9.50;100.00
3206;BME280;1615;53.602;11.418;2023-02-11T07:23:32;102158.56;;;9.53;100.00
3206;BME280;1615;53.602;11.418;2023-02-11T07:26:03;102160.22;;;9.54;100.00
3206;BME280;1615;53.602;11.418;2023-02-11T07:28:28;102172.94;;;9.60;100.00
3206;BME280;1615;53.602;11.418;2023-02-11T07:30:54;102162.63;;;9.67;100.00
3206;BME280;1615;53.602;11.418;2023-02-11T07:33:19;102164.28;;;9.68;100.00
3206;BME280;1615;53.602;11.418;2023-02-11T07:35:44;102164.28;;;9.68;100.00
3206;BME280;1615;53.602;11.418;2023-02-11T07:38:10;102159.94;;;9.72;100.00
3206;BME280;1615;53.602;11.418;2023-02-11T07:40:35;102176.94;;;9.74;100.00
3206;BME280;1615;53.602;11.418;2023-02-11T07:43:00;102164.91;;;9.75;100.00
3206;BME280;1615;53.602;11.418;2023-02-11T07:45:27;102151.81;;;9.77;100.00
3206;BME280;1615;53.602;11.418;2023-02-11T07:47:52;102146.19;;;9.67;100.00
3206;BME280;1615;53.602;11.418;2023-02-11T07:50:17;102144.41;;;9.77;100.00
3206;BME280;1615;53.602;11.418;2023-02-11T07:52:43;102131.28;;;9.79;100.00
3206;BME280;1615;53.602;11.418;2023-02-11T07:55:08;102140.31;;;9.80;100.00
3206;BME280;1615;53.602;11.418;2023-02-11T07:57:34;102138.66;;;9.79;100.00
3206;BME280;1615;53.602;11.418;2023-02-11T07:59:59;102158.75;;;9.84;100.00
3206;BME280;1615;53.602;11.418;2023-02-11T08:02:25;102149.13;;;9.82;100.00
3206;BME280;1615;53.602;11.418;2023-02-11T08:04:50;102169.72;;;9.84;100.00
3206;BME280;1615;53.602;11.418;2023-02-11T08:07:16;102169.44;;;9.86;100.00
3206;BME280;1615;53.602;11.418;2023-02-11T08:09:42;102097.34;;;9.37;100.00
3206;BME280;1615;53.602;11.418;2023-02-11T08:12:07;102158.53;;;9.91;100.00
3206;BME280;1615;53.602;11.418;2023-02-11T08:14:33;102172.13;;;10.02;100.00
3206;BME280;1615;53.602;11.418;2023-02-11T08:16:58;102162.00;;;10.03;100.00
3206;BME280;1615;53.602;11.418;2023-02-11T08:19:23;102180.19;;;10.09;100.00
3206;BME280;1615;53.602;11.418;2023-02-11T08:21:49;102190.13;;;10.15;100.00
3206;BME280;1615;53.602;11.418;2023-02-11T08:24:14;102098.00;;;9.66;100.00
3206;BME280;1615;53.602;11.418;2023-02-11T08:26:40;102171.44;;;10.12;100.00
3206;BME280;1615;53.602;11.418;2023-02-11T08:29:09;102111.84;;;9.81;100.00
3206;BME280;1615;53.602;11.418;2023-02-11T08:31:37;102171.50;;;10.17;100.00
3206;BME280;1615;53.602;11.418;2023-02-11T08:34:05;102226.06;;;10.18;100.00
3206;BME280;1615;53.602;11.418;2023-02-11T08:36:33;102173.22;;;10.23;100.00
3206;BME280;1615;53.602;11.418;2023-02-11T08:39:00;102185.88;;;10.29;100.00
3206;BME280;1615;53.602;11.418;2023-02-11T08:41:28;102189.94;;;10.21;100.00
3206;BME280;1615;53.602;11.418;2023-02-11T08:43:53;102184.75;;;10.25;100.00
3206;BME280;1615;53.602;11.418;2023-02-11T08:46:19;102185.38;;;10.32;100.00
3206;BME280;1615;53.602;11.418;2023-02-11T08:48:45;102194.44;;;10.32;100.00
3206;BME280;1615;53.602;11.418;2023-02-11T08:51:23;102183.91;;;10.24;100.00
3206;BME280;1615;53.602;11.418;2023-02-11T08:53:49;102203.09;;;10.46;100.00
3206;BME280;1615;53.602;11.418;2023-02-11T08:56:16;102201.41;;;10.45;100.00
3206;BME280;1615;53.602;11.418;2023-02-11T08:58:42;102207.50;;;10.47;100.00
3206;BME280;1615;53.602;11.418;2023-02-11T09:01:12;102212.44;;;10.50;100.00
3206;BME280;1615;53.602;11.418;2023-02-11T09:03:38;102215.03;;;10.61;100.00
3206;BME280;1615;53.602;11.418;2023-02-11T09:06:05;102204.50;;;10.75;100.00
3206;BME280;1615;53.602;11.418;2023-02-11T09:08:33;102194.91;;;10.77;100.00
3206;BME280;1615;53.602;11.418;2023-02-11T09:10:59;102193.81;;;10.78;100.00
3206;BME280;1615;53.602;11.418;2023-02-11T09:13:24;102198.16;;;10.74;100.00
3206;BME280;1615;53.602;11.418;2023-02-11T09:15:50;102197.75;;;10.87;100.00
3206;BME280;1615;53.602;11.418;2023-02-11T09:18:15;102209.03;;;10.91;100.00
3206;BME280;1615;53.602;11.418;2023-02-11T09:20:40;102206.34;;;10.96;100.00
3206;BME280;1615;53.602;11.418;2023-02-11T09:23:06;102203.03;;;10.94;100.00
3206;BME280;1615;53.602;11.418;2023-02-11T09:25:31;102209.97;;;11.01;100.00
3206;BME280;1615;53.602;11.418;2023-02-11T09:27:56;102204.44;;;10.96;100.00
3206;BME280;1615;53.602;11.418;2023-02-11T09:30:22;102211.38;;;11.04;100.00
3206;BME280;1615;53.602;11.418;2023-02-11T09:32:47;102222.41;;;11.14;100.00
3206;BME280;1615;53.602;11.418;2023-02-11T09:35:13;102146.53;;;10.66;100.00
3206;BME280;1615;53.602;11.418;2023-02-11T09:37:38;102195.97;;;11.03;100.00
3206;BME280;1615;53.602;11.418;2023-02-11T09:40:04;102225.47;;;11.17;100.00
3206;BME280;1615;53.602;11.418;2023-02-11T09:45:02;102214.56;;;11.27;100.00
3206;BME280;1615;53.602;11.418;2023-02-11T09:47:31;102223.16;;;11.36;100.00
3206;BME280;1615;53.602;11.418;2023-02-11T09:50:03;102074.25;;;10.46;100.00
3206;BME280;1615;53.602;11.418;2023-02-11T09:55:32;102216.63;;;11.42;100.00
3206;BME280;1615;53.602;11.418;2023-02-11T09:58:03;102182.31;;;11.13;100.00
3206;BME280;1615;53.602;11.418;2023-02-11T10:00:36;102222.31;;;11.35;100.00
3206;BME280;1615;53.602;11.418;2023-02-11T10:03:25;102252.88;;;11.44;100.00
3206;BME280;1615;53.602;11.418;2023-02-11T10:12:02;102214.25;;;11.24;100.00
3206;BME280;1615;53.602;11.418;2023-02-11T10:20:29;102249.44;;;11.27;100.00
3206;BME280;1615;53.602;11.418;2023-02-11T10:23:11;102254.34;;;11.25;100.00
3206;BME280;1615;53.602;11.418;2023-02-11T10:25:42;102245.59;;;11.28;100.00
3206;BME280;1615;53.602;11.418;2023-02-11T10:28:17;102253.84;;;11.28;100.00
3206;BME280;1615;53.602;11.418;2023-02-11T10:30:59;102252.69;;;11.24;100.00
3206;BME280;1615;53.602;11.418;2023-02-11T10:33:26;102261.53;;;11.26;100.00
3206;BME280;1615;53.602;11.418;2023-02-11T10:35:52;102264.81;;;11.28;100.00
3206;BME280;1615;53.602;11.418;2023-02-11T10:38:18;102254.97;;;11.32;100.00
3206;BME280;1615;53.602;11.418;2023-02-11T10:40:43;102253.91;;;11.38;100.00
3206;BME280;1615;53.602;11.418;2023-02-11T10:43:14;102240.66;;;11.30;100.00
3206;BME280;1615;53.602;11.418;2023-02-11T10:45:49;102253.38;;;11.41;100.00
3206;BME280;1615;53.602;11.418;2023-02-11T10:48:41;102262.63;;;11.30;100.00
3206;BME280;1615;53.602;11.418;2023-02-11T10:51:20;102258.81;;;11.31;100.00
3206;BME280;1615;53.602;11.418;2023-02-11T10:56:36;102253.97;;;11.43;100.00
3206;BME280;1615;53.602;11.418;2023-02-11T10:59:06;102240.44;;;11.36;100.00
3206;BME280;1615;53.602;11.418;2023-02-11T11:01:48;102257.22;;;11.40;100.00
3206;BME280;1615;53.602;11.418;2023-02-11T11:04:43;102253.91;;;11.38;100.00
3206;BME280;1615;53.602;11.418;2023-02-11T11:07:24;102267.44;;;11.44;100.00
3206;BME280;1615;53.602;11.418;2023-02-11T11:12:47;102225.53;;;11.27;100.00
3206;BME280;1615;53.602;11.418;2023-02-11T11:17:50;102251.41;;;11.63;100.00
3206;BME280;1615;53.602;11.418;2023-02-11T11:20:32;102245.38;;;11.66;100.00
3206;BME280;1615;53.602;11.418;2023-02-11T11:23:27;102259.66;;;11.63;100.00
3206;BME280;1615;53.602;11.418;2023-02-11T11:26:09;102271.56;;;11.78;100.00
3206;BME280;1615;53.602;11.418;2023-02-11T11:28:38;102209.63;;;11.61;100.00
3206;BME280;1615;53.602;11.418;2023-02-11T11:31:12;102261.88;;;12.12;100.00
3206;BME280;1615;53.602;11.418;2023-02-11T11:33:40;102250.59;;;12.09;100.00
3206;BME280;1615;53.602;11.418;2023-02-11T11:36:09;102227.09;;;11.81;100.00
3206;BME280;1615;53.602;11.418;2023-02-11T11:38:42;102263.19;;;12.00;100.00
3206;BME280;1615;53.602;11.418;2023-02-11T11:41:24;102245.97;;;11.73;100.00
3206;BME280;1615;53.602;11.418;2023-02-11T11:43:57;102267.56;;;11.96;100.00
3206;BME280;1615;53.602;11.418;2023-02-11T11:46:33;102265.91;;;11.95;100.00
3206;BME280;1615;53.602;11.418;2023-02-11T11:51:37;102269.72;;;11.94;100.00
3206;BME280;1615;53.602;11.418;2023-02-11T11:54:10;102214.59;;;11.64;100.00
3206;BME280;1615;53.602;11.418;2023-02-11T11:57:30;102271.69;;;11.98;100.00
3206;BME280;1615;53.602;11.418;2023-02-11T11:59:31;102301.38;;;12.01;100.00
3206;BME280;1615;53.602;11.418;2023-02-11T12:02:24;102277.22;;;12.03;100.00
3206;BME280;1615;53.602;11.418;2023-02-11T12:05:21;102272.50;;;11.99;100.00
3206;BME280;1615;53.602;11.418;2023-02-11T12:08:07;102125.28;;;11.15;100.00
3206;BME280;1615;53.602;11.418;2023-02-11T12:10:47;102242.22;;;11.84;100.00
3206;BME280;1615;53.602;11.418;2023-02-11T12:15:56;102247.75;;;11.94;100.00
3206;BME280;1615;53.602;11.418;2023-02-11T12:18:54;102273.69;;;12.13;100.00
3206;BME280;1615;53.602;11.418;2023-02-11T12:24:29;102275.63;;;12.17;100.00
3206;BME280;1615;53.602;11.418;2023-02-11T12:30:15;102289.09;;;12.14;100.00
3206;BME280;1615;53.602;11.418;2023-02-11T12:33:13;102292.34;;;12.01;100.00
3206;BME280;1615;53.602;11.418;2023-02-11T12:38:47;102291.34;;;11.80;100.00
3206;BME280;1615;53.602;11.418;2023-02-11T12:43:42;102289.69;;;11.79;100.00
3206;BME280;1615;53.602;11.418;2023-02-11T12:51:32;102279.69;;;11.63;100.00
3206;BME280;1615;53.602;11.418;2023-02-11T12:54:26;102265.28;;;11.51;100.00
3206;BME280;1615;53.602;11.418;2023-02-11T12:57:05;102289.31;;;11.66;100.00
3206;BME280;1615;53.602;11.418;2023-02-11T12:59:55;102264.38;;;11.41;100.00
3206;BME280;1615;53.602;11.418;2023-02-11T13:02:45;102300.78;;;11.58;100.00
3206;BME280;1615;53.602;11.418;2023-02-11T13:05:39;102312.03;;;11.56;100.00
3206;BME280;1615;53.602;11.418;2023-02-11T13:10:41;102221.72;;;10.97;100.00
3206;BME280;1615;53.602;11.418;2023-02-11T13:13:28;102320.81;;;11.58;100.00
3206;BME280;1615;53.602;11.418;2023-02-11T13:15:58;102318.34;;;11.57;100.00
3206;BME280;1615;53.602;11.418;2023-02-11T13:22:01;102340.97;;;11.64;100.00
3206;BME280;1615;53.602;11.418;2023-02-11T13:24:47;102250.25;;;10.96;100.00
3206;BME280;1615;53.602;11.418;2023-02-11T13:27:36;102340.28;;;11.52;100.00
3206;BME280;1615;53.602;11.418;2023-02-11T13:30:28;102340.28;;;11.52;100.00
3206;BME280;1615;53.602;11.418;2023-02-11T13:35:44;102333.13;;;11.51;100.00
3206;BME280;1615;53.602;11.418;2023-02-11T13:38:18;102330.88;;;11.43;100.00
3206;BME280;1615;53.602;11.418;2023-02-11T13:43:41;102349.88;;;11.49;100.00
3206;BME280;1615;53.602;11.418;2023-02-11T13:46:09;102362.78;;;11.49;100.00
3206;BME280;1615;53.602;11.418;2023-02-11T13:48:38;102361.69;;;11.50;100.00
3206;BME280;1615;53.602;11.418;2023-02-11T13:51:12;102363.63;;;11.49;100.00
3206;BME280;1615;53.602;11.418;2023-02-11T13:53:55;102366.63;;;11.48;100.00
3206;BME280;1615;53.602;11.418;2023-02-11T13:56:35;102372.88;;;11.43;100.00
3206;BME280;1615;53.602;11.418;2023-02-11T13:59:42;102380.28;;;11.43;100.00
3206;BME280;1615;53.602;11.418;2023-02-11T14:08:12;102389.78;;;11.30;100.00
3206;BME280;1615;53.602;11.418;2023-02-11T14:11:06;102404.41;;;11.36;100.00
3206;BME280;1615;53.602;11.418;2023-02-11T14:16:17;102403.03;;;11.38;100.00
3206;BME280;1615;53.602;11.418;2023-02-11T14:23:52;102413.19;;;11.38;100.00
3206;BME280;1615;53.602;11.418;2023-02-11T14:28:46;102430.53;;;11.43;100.00
3206;BME280;1615;53.602;11.418;2023-02-11T14:31:25;102419.31;;;11.45;100.00
3206;BME280;1615;53.602;11.418;2023-02-11T14:34:05;102428.94;;;11.47;100.00
3206;BME280;1615;53.602;11.418;2023-02-11T14:39:38;102417.66;;;11.44;100.00
3206;BME280;1615;53.602;11.418;2023-02-11T14:42:16;102354.03;;;10.99;100.00
3206;BME280;1615;53.602;11.418;2023-02-11T14:44:43;102421.25;;;11.44;100.00
3206;BME280;1615;53.602;11.418;2023-02-11T14:47:18;102423.66;;;11.41;100.00
3206;BME280;1615;53.602;11.418;2023-02-11T14:49:45;102404.78;;;11.23;100.00
3206;BME280;1615;53.602;11.418;2023-02-11T14:52:31;102428.50;;;11.34;100.00
3206;BME280;1615;53.602;11.418;2023-02-11T14:57:31;102437.38;;;11.41;100.00
3206;BME280;1615;53.602;11.418;2023-02-11T15:00:20;102422.72;;;11.30;100.00
3206;BME280;1615;53.602;11.418;2023-02-11T15:02:44;102452.78;;;11.42;100.00
3206;BME280;1615;53.602;11.418;2023-02-11T15:05:38;102460.44;;;11.40;100.00
3206;BME280;1615;53.602;11.418;2023-02-11T15:08:04;102475.81;;;11.41;100.00
3206;BME280;1615;53.602;11.418;2023-02-11T15:10:33;102475.00;;;11.40;100.00
3206;BME280;1615;53.602;11.418;2023-02-11T15:13:00;102480.75;;;11.39;100.00